Time;durP1;ratioP1;P1;durP2;ratioP2;P2;SDS_P1;SDS_P2;PMS_P1;PMS_P2;Temp;Humidity;BMP_temperature;BMP_pressure;BME280_temperature;BME280_humidity;BME280_pressure;Samples;Min_cycle;Max_cycle;Signal;HPM_P1;HPM_P2
2022/07/15 00:01:09;;;;;;;3.75;1.80;;;;;;;26.42;35.68;100557.08;1753948;80;21561;-82
2022/07/15 00:03:35;;;;;;;2.20;1.52;;;;;;;26.43;35.70;100554.52;1754224;80;21075;-81
2022/07/15 00:06:01;;;;;;;2.42;1.62;;;;;;;26.43;35.72;100554.52;1755963;80;21063;-82
2022/07/15 00:08:28;;;;;;;2.50;1.72;;;;;;;26.43;35.71;100551.15;1753390;81;21032;-82
2022/07/15 00:10:55;;;;;;;2.50;1.55;;;;;;;26.42;35.74;100552.31;1730485;82;21062;-82
2022/07/15 00:13:23;;;;;;;1.87;1.30;;;;;;;26.42;35.77;100556.49;1720774;82;21876;-81
2022/07/15 00:15:50;;;;;;;2.20;1.50;;;;;;;26.43;35.79;100557.31;1720366;82;21517;-82
2022/07/15 00:18:16;;;;;;;2.30;1.70;;;;;;;26.43;35.81;100553.13;1720312;82;20996;-82
2022/07/15 00:20:43;;;;;;;2.17;1.60;;;;;;;26.41;35.79;100553.47;1720648;82;21031;-81
2022/07/15 00:23:10;;;;;;;3.72;1.70;;;;;;;26.42;35.87;100553.70;1720348;82;20952;-82
2022/07/15 00:25:36;;;;;;;2.50;1.50;;;;;;;26.43;35.90;100555.91;1720554;82;21102;-82
2022/07/15 00:28:06;;;;;;;2.67;1.47;;;;;;;26.43;35.91;100555.91;1720683;82;21039;-81
2022/07/15 00:30:34;;;;;;;;;;;;;;;26.42;35.94;100550.10;1722928;83;21086;-82
2022/07/15 00:33:01;;;;;;;3.00;1.52;;;;;;;26.42;36.00;100551.50;1720614;82;20354;-81
2022/07/15 00:35:32;;;;;;;2.10;1.70;;;;;;;26.40;35.95;100549.64;1720825;82;21008;-82
2022/07/15 00:37:58;;;;;;;3.42;1.80;;;;;;;26.41;36.00;100552.66;1719720;82;21178;-82
2022/07/15 00:40:25;;;;;;;3.05;1.70;;;;;;;26.41;36.00;100554.06;1699422;83;21077;-81
2022/07/15 00:42:51;;;;;;;3.47;1.42;;;;;;;26.40;36.01;100553.24;1712355;82;21125;-82
2022/07/15 00:45:23;;;;;;;2.87;1.60;;;;;;;26.40;36.01;100556.62;1690721;83;21571;-82
2022/07/15 00:47:55;;;;;;;1.95;1.35;;;;;;;26.41;36.05;100561.03;1722374;82;21055;-81
2022/07/15 00:50:24;;;;;;;2.42;1.67;;;;;;;26.40;36.09;100562.20;1722226;82;21173;-81
2022/07/15 00:52:55;;;;;;;3.08;1.72;;;;;;;26.40;36.09;100561.61;1691887;83;21665;-82
2022/07/15 00:55:22;;;;;;;3.12;1.45;;;;;;;26.40;36.10;100563.59;1722270;81;21034;-82
2022/07/15 00:57:57;;;;;;;3.02;1.40;;;;;;;26.40;36.10;100559.41;1722002;81;21063;-81
2022/07/15 01:00:23;;;;;;;2.83;1.50;;;;;;;26.39;36.11;100553.05;1706247;83;21092;-82
2022/07/15 01:02:50;;;;;;;2.52;1.52;;;;;;;26.39;36.15;100557.23;1722304;83;21573;-80
2022/07/15 01:05:19;;;;;;;3.35;1.92;;;;;;;26.40;36.15;100551.04;1706052;82;21069;-82
2022/07/15 01:07:45;;;;;;;3.65;1.72;;;;;;;26.39;36.15;100549.44;1717713;82;21063;-82
2022/07/15 01:10:12;;;;;;;5.12;1.67;;;;;;;26.40;36.18;100546.86;1687520;83;21581;-81
2022/07/15 01:12:40;;;;;;;2.00;1.55;;;;;;;26.39;36.20;100544.67;1699461;84;20993;-81
2022/07/15 01:15:08;;;;;;;3.77;1.77;;;;;;;26.39;36.20;100543.28;1699810;84;21042;-81
2022/07/15 01:17:34;;;;;;;1.85;1.37;;;;;;;26.39;36.22;100539.69;1699559;83;20997;-81
2022/07/15 01:20:08;;;;;;;2.42;1.67;;;;;;;26.38;36.23;100545.84;1699519;84;21140;-81
2022/07/15 01:22:34;;;;;;;2.27;1.52;;;;;;;26.40;36.23;100544.06;1689160;83;21116;-81
2022/07/15 01:25:01;;;;;;;2.62;1.70;;;;;;;26.39;36.24;100535.50;1672963;85;21578;-81
2022/07/15 01:27:27;;;;;;;4.03;1.70;;;;;;;26.38;36.28;100537.47;1657042;85;21131;-81
2022/07/15 01:29:53;;;;;;;2.52;1.75;;;;;;;26.39;36.29;100539.69;1672858;85;21024;-82
2022/07/15 01:32:20;;;;;;;2.47;1.60;;;;;;;26.38;36.29;100530.50;1672778;85;21029;-82
2022/07/15 01:34:51;;;;;;;3.58;1.60;;;;;;;26.38;36.29;100530.50;1672485;85;21068;-81
2022/07/15 01:37:16;;;;;;;3.37;1.90;;;;;;;26.38;36.31;100533.29;1672582;85;21060;-81
2022/07/15 01:39:43;;;;;;;3.60;1.85;;;;;;;26.38;36.30;100538.87;1672859;84;21981;-81
2022/07/15 01:42:09;;;;;;;4.12;2.33;;;;;;;26.39;36.34;100536.89;1672757;84;21073;-81
2022/07/15 01:44:35;;;;;;;2.95;1.90;;;;;;;26.38;36.36;100536.08;1672807;84;21682;-81
2022/07/15 01:47:02;;;;;;;3.75;1.95;;;;;;;26.38;36.41;100535.27;1672803;84;21048;-81
2022/07/15 01:49:34;;;;;;;3.58;1.75;;;;;;;26.38;36.46;100531.08;1672606;84;21611;-81
2022/07/15 01:52:01;;;;;;;3.00;1.95;;;;;;;26.38;36.48;100526.90;1673116;85;21756;-82
2022/07/15 01:54:30;;;;;;;2.05;1.60;;;;;;;26.38;36.52;100530.50;1672682;84;21064;-82
2022/07/15 01:56:56;;;;;;;2.55;1.85;;;;;;;26.38;36.54;100528.30;1672599;85;21136;-81
2022/07/15 01:59:22;;;;;;;2.40;1.72;;;;;;;26.38;36.55;100528.30;1672834;85;21060;-81
2022/07/15 02:01:49;;;;;;;3.27;1.80;;;;;;;26.37;36.55;100523.30;1672818;84;21040;-82
2022/07/15 02:04:15;;;;;;;3.20;1.70;;;;;;;26.38;36.54;100519.92;1672384;84;21135;-81
2022/07/15 02:06:42;;;;;;;2.70;1.60;;;;;;;26.36;36.54;100522.48;1681002;84;21070;-82
2022/07/15 02:09:08;;;;;;;2.77;1.72;;;;;;;26.37;36.56;100520.51;1699109;83;21469;-81
2022/07/15 02:11:35;;;;;;;2.98;1.90;;;;;;;26.36;36.57;100519.70;1699035;84;21425;-81
2022/07/15 02:14:01;;;;;;;3.12;2.00;;;;;;;26.36;36.56;100521.09;1699097;83;21155;-81
2022/07/15 02:16:30;;;;;;;2.52;1.90;;;;;;;26.36;36.55;100521.09;1699243;84;21157;-81
2022/07/15 02:18:57;;;;;;;2.35;1.70;;;;;;;26.35;36.57;100522.25;1698577;84;21112;-82
2022/07/15 02:21:24;;;;;;;2.90;1.70;;;;;;;26.36;36.57;100516.91;1699258;83;21072;-81
2022/07/15 02:23:50;;;;;;;3.50;1.67;;;;;;;26.36;36.59;100521.09;1699248;83;21128;-82
2022/07/15 02:26:17;;;;;;;2.98;1.77;;;;;;;26.35;36.59;100516.67;1698801;84;21072;-81
2022/07/15 02:28:43;;;;;;;3.83;2.10;;;;;;;26.37;36.60;100510.74;1699324;84;21890;-82
2022/07/15 02:31:10;;;;;;;2.62;1.77;;;;;;;26.37;36.61;100513.53;1699250;84;21020;-81
2022/07/15 02:33:36;;;;;;;3.30;1.87;;;;;;;26.35;36.61;100512.49;1690034;84;21081;-81
2022/07/15 02:36:03;;;;;;;4.55;2.00;;;;;;;26.35;36.64;100511.09;1672449;85;21093;-82
2022/07/15 02:38:29;;;;;;;4.60;1.90;;;;;;;26.35;36.66;100508.31;1672783;85;21029;-81
2022/07/15 02:40:56;;;;;;;3.00;2.00;;;;;;;26.35;36.70;100506.91;1672669;85;21100;-81
2022/07/15 02:43:22;;;;;;;4.33;1.92;;;;;;;26.35;36.73;100504.73;1672816;85;21290;-82
2022/07/15 02:45:48;;;;;;;3.45;1.72;;;;;;;26.34;36.75;100508.11;1672374;85;21692;-82
2022/07/15 02:48:15;;;;;;;4.20;2.12;;;;;;;26.35;36.76;100506.13;1672538;85;21063;-81
2022/07/15 02:50:41;;;;;;;2.65;1.95;;;;;;;26.35;36.79;100515.28;1672874;85;21076;-82
2022/07/15 02:53:07;;;;;;;2.62;1.87;;;;;;;26.35;36.80;100515.28;1672850;85;21766;-82
2022/07/15 02:55:34;;;;;;;4.30;2.10;;;;;;;26.34;36.79;100512.30;1672618;85;21104;-82
2022/07/15 02:58:02;;;;;;;3.55;2.10;;;;;;;26.35;36.80;100510.31;1673056;85;21068;-82
2022/07/15 03:00:28;;;;;;;2.87;1.80;;;;;;;26.34;36.80;100513.69;1672888;85;20977;-81
2022/07/15 03:02:55;;;;;;;3.52;1.62;;;;;;;26.34;36.81;100509.50;1672857;85;21113;-82
2022/07/15 03:05:21;;;;;;;3.12;1.95;;;;;;;26.34;36.82;100510.91;1673112;84;21096;-81
2022/07/15 03:07:48;;;;;;;3.75;2.15;;;;;;;26.34;36.83;100508.69;1699864;84;21674;-82
2022/07/15 03:10:14;;;;;;;3.62;2.40;;;;;;;26.34;36.84;100511.48;1706733;83;20983;-81
2022/07/15 03:12:41;;;;;;;4.05;2.05;;;;;;;26.35;36.86;100514.50;1688013;85;21080;-81
2022/07/15 03:15:08;;;;;;;3.95;2.27;;;;;;;26.34;36.87;100517.88;1688090;83;21096;-81
2022/07/15 03:17:34;;;;;;;3.10;1.80;;;;;;;26.34;36.89;100517.88;1687572;83;21518;-82
2022/07/15 03:20:01;;;;;;;4.45;1.75;;;;;;;26.33;36.88;100520.43;1688047;83;21050;-82
2022/07/15 03:22:27;;;;;;;3.77;1.90;;;;;;;26.34;36.92;100524.03;1687747;83;21024;-82
2022/07/15 03:24:54;;;;;;;3.90;2.15;;;;;;;26.34;36.95;100530.42;1687715;83;21096;-82
2022/07/15 03:27:20;;;;;;;3.72;1.95;;;;;;;26.34;36.99;100525.42;1687952;83;21488;-82
2022/07/15 03:29:47;;;;;;;3.75;2.00;;;;;;;26.34;37.01;100524.03;1660290;85;21692;-82
2022/07/15 03:32:20;;;;;;;3.85;2.12;;;;;;;26.34;37.04;100524.03;1687641;83;21653;-82
2022/07/15 03:34:48;;;;;;;4.87;2.05;;;;;;;26.34;37.04;100524.03;1688139;84;21091;-81
2022/07/15 03:37:15;;;;;;;3.50;1.90;;;;;;;26.34;37.02;100526.82;1687828;83;21124;-82
2022/07/15 03:39:41;;;;;;;3.35;1.95;;;;;;;26.33;37.04;100523.22;1687907;83;21107;-82
2022/07/15 03:42:07;;;;;;;4.03;1.95;;;;;;;26.33;37.02;100525.20;1688194;83;21116;-82
2022/07/15 03:44:34;;;;;;;3.87;2.37;;;;;;;26.33;37.04;100521.83;1687862;83;21558;-82
2022/07/15 03:47:00;;;;;;;4.37;2.12;;;;;;;26.33;37.03;100530.78;1689864;83;21066;-82
2022/07/15 03:49:27;;;;;;;4.15;2.33;;;;;;;26.33;37.07;100531.59;1748014;82;21046;-81
2022/07/15 03:51:54;;;;;;;3.62;2.10;;;;;;;26.32;37.06;100543.09;1761336;80;21045;-82
2022/07/15 03:54:20;;;;;;;3.27;2.30;;;;;;;26.33;37.09;100534.96;1760889;80;21077;-81
2022/07/15 03:56:47;;;;;;;3.22;1.90;;;;;;;26.33;37.08;100535.77;1761044;80;21718;-81
2022/07/15 03:59:14;;;;;;;2.75;1.85;;;;;;;26.34;37.11;100539.38;1761168;81;21085;-81
2022/07/15 04:01:41;;;;;;;2.90;1.98;;;;;;;26.33;37.13;100539.14;1761211;80;21559;-82
2022/07/15 04:04:08;;;;;;;3.47;2.08;;;;;;;26.33;37.15;100534.96;1761428;80;21611;-82
2022/07/15 04:06:35;;;;;;;3.45;2.05;;;;;;;26.32;37.16;100538.33;1760996;80;21148;-82
2022/07/15 04:09:01;;;;;;;5.70;2.30;;;;;;;26.33;37.15;100539.95;1760563;80;21136;-82
2022/07/15 04:11:28;;;;;;;3.08;2.00;;;;;;;26.33;37.20;100544.72;1740244;82;21512;-81
2022/07/15 04:13:54;;;;;;;5.30;2.20;;;;;;;26.34;37.22;100543.55;1750722;80;21642;-81
2022/07/15 04:16:21;;;;;;;4.37;2.27;;;;;;;26.33;37.25;100546.12;1750484;80;20961;-81
2022/07/15 04:18:47;;;;;;;2.92;2.02;;;;;;;26.33;37.27;100534.38;1750471;80;21376;-82
2022/07/15 04:21:14;;;;;;;3.85;2.30;;;;;;;26.33;37.34;100539.95;1750739;80;21144;-82
2022/07/15 04:23:40;;;;;;;3.37;2.20;;;;;;;26.34;37.38;100538.79;1750394;80;21073;-81
2022/07/15 04:26:06;;;;;;;4.35;2.40;;;;;;;26.34;37.43;100541.58;1750797;80;21049;-79
2022/07/15 04:28:33;;;;;;;5.17;2.58;;;;;;;26.34;37.44;100538.79;1750563;80;21034;-81
2022/07/15 04:30:59;;;;;;;4.03;2.00;;;;;;;26.33;37.49;100541.93;1750171;80;21576;-81
2022/07/15 04:33:25;;;;;;;4.50;2.58;;;;;;;26.35;37.51;100539.61;1750533;80;21093;-82
2022/07/15 04:35:52;;;;;;;3.67;2.00;;;;;;;26.35;37.55;100542.39;1756932;80;21109;-81
2022/07/15 04:38:18;;;;;;;6.60;2.20;;;;;;;26.34;37.58;100540.19;1740482;81;21101;-81
2022/07/15 04:40:45;;;;;;;3.37;2.00;;;;;;;26.34;37.62;100540.19;1751181;80;21544;-81
2022/07/15 04:43:17;;;;;;;3.45;1.98;;;;;;;26.34;37.62;100536.00;1751007;80;21281;-82
2022/07/15 04:45:43;;;;;;;6.97;2.35;;;;;;;26.35;37.64;100534.03;1750850;81;21124;-82
2022/07/15 04:50:55;;;;;;;3.47;2.12;;;;;;;26.35;37.69;100540.38;1750621;80;21065;-81
2022/07/15 04:53:22;;;;;;;5.92;2.22;;;;;;;26.35;37.69;100534.81;1750936;80;21034;-81
2022/07/15 04:55:51;;;;;;;3.62;1.90;;;;;;;26.36;37.70;100541.20;1731857;81;21650;-82
2022/07/15 04:58:18;;;;;;;3.95;2.00;;;;;;;26.35;37.72;100537.59;1721624;82;21116;-81
2022/07/15 05:00:45;;;;;;;7.97;3.22;;;;;;;26.34;37.85;100541.58;1731472;81;21053;-81
2022/07/15 05:03:12;;;;;;;12.47;3.30;;;;;;;26.33;38.04;100541.93;1750977;80;21072;-80
2022/07/15 05:05:38;;;;;;;10.25;3.12;;;;;;;26.28;38.32;100538.84;1751778;80;21070;-81
2022/07/15 05:08:05;;;;;;;10.88;3.30;;;;;;;26.24;38.53;100535.16;1749407;82;21118;-81
2022/07/15 05:10:31;;;;;;;8.83;3.02;;;;;;;26.20;38.64;100534.84;1750640;80;21503;-80
2022/07/15 05:12:58;;;;;;;7.12;2.90;;;;;;;26.14;38.70;100534.27;1738339;81;21061;-80
2022/07/15 05:15:25;;;;;;;7.72;2.83;;;;;;;26.13;38.74;100531.86;1705480;83;21131;-80
2022/07/15 05:17:51;;;;;;;6.00;2.65;;;;;;;26.11;38.78;100540.58;1701319;83;21158;-81
2022/07/15 05:20:17;;;;;;;8.15;3.00;;;;;;;26.09;38.79;100534.58;1703321;83;21131;-82
2022/07/15 05:22:45;;;;;;;6.58;2.40;;;;;;;26.03;38.85;100541.58;1743478;81;21028;-80
2022/07/15 05:25:12;;;;;;;9.33;2.95;;;;;;;26.01;38.89;100541.15;1720735;82;21033;-81
2022/07/15 05:27:39;;;;;;;10.75;2.80;;;;;;;26.02;38.88;100544.14;1720341;83;21446;-79
2022/07/15 05:30:08;;;;;;;13.20;3.15;;;;;;;26.01;38.88;100536.16;1710484;83;21105;-81
2022/07/15 05:32:34;;;;;;;9.30;2.58;;;;;;;26.02;38.88;100536.36;1715736;83;22001;-80
2022/07/15 05:35:00;;;;;;;9.00;2.52;;;;;;;26.02;38.92;100538.56;1715291;83;21083;-81
2022/07/15 05:37:27;;;;;;;12.05;2.60;;;;;;;26.01;38.90;100539.75;1742997;81;21006;-80
2022/07/15 05:39:53;;;;;;;6.72;2.40;;;;;;;26.01;38.94;100542.55;1754088;81;21069;-80
2022/07/15 05:42:21;;;;;;;7.87;2.40;;;;;;;26.00;38.97;100535.34;1779362;80;21067;-79
2022/07/15 05:44:47;;;;;;;13.18;3.52;;;;;;;26.00;38.99;100535.92;1785055;79;21147;-81
2022/07/15 05:47:14;;;;;;;10.30;3.02;;;;;;;26.00;39.06;100542.31;1784870;79;21019;-81
2022/07/15 05:49:43;;;;;;;5.42;3.20;;;;;;;26.01;39.05;100543.94;1784695;80;21029;-81
2022/07/15 05:52:10;;;;;;;14.45;3.22;;;;;;;26.01;39.05;100542.55;1784863;80;21091;-81
2022/07/15 05:54:39;;;;;;;9.03;3.15;;;;;;;25.99;39.01;100537.89;1784633;79;21040;-81
2022/07/15 05:57:11;;;;;;;9.13;2.60;;;;;;;25.99;39.01;100546.27;1784756;80;21202;-80
2022/07/15 05:59:38;;;;;;;9.00;2.77;;;;;;;26.00;39.03;100538.13;1774869;80;21057;-81
2022/07/15 06:02:04;;;;;;;5.22;2.45;;;;;;;26.02;39.01;100545.53;1753520;81;20981;-81
2022/07/15 06:04:31;;;;;;;13.25;2.77;;;;;;;26.03;38.96;100541.58;1766704;80;20956;-81
2022/07/15 06:06:57;;;;;;;9.83;2.50;;;;;;;26.06;38.93;100538.06;1764273;79;21128;-81
2022/07/15 06:09:30;;;;;;;8.63;2.60;;;;;;;26.07;38.86;100535.50;1753824;81;21415;-81
2022/07/15 06:11:56;;;;;;;7.55;2.45;;;;;;;26.07;38.81;100537.48;1757397;80;21029;-81
2022/07/15 06:14:22;;;;;;;7.62;3.30;;;;;;;26.04;38.74;100539.02;1755695;81;21075;-80
2022/07/15 06:16:49;;;;;;;4.92;2.22;;;;;;;26.05;38.74;100536.47;1755982;81;21106;-80
2022/07/15 06:19:15;;;;;;;5.20;2.27;;;;;;;26.05;38.72;100535.08;1755628;81;21486;-81
2022/07/15 06:21:47;;;;;;;5.65;2.45;;;;;;;26.07;38.71;100536.09;1755895;81;21839;-81
2022/07/15 06:24:14;;;;;;;6.92;2.52;;;;;;;26.09;38.69;100531.78;1757236;81;20877;-81
2022/07/15 06:26:40;;;;;;;9.53;2.90;;;;;;;26.10;38.62;100531.98;1756946;81;20965;-81
2022/07/15 06:29:06;;;;;;;10.38;2.62;;;;;;;26.11;38.56;100536.98;1729338;81;21017;-81
2022/07/15 06:31:33;;;;;;;9.28;2.67;;;;;;;26.12;38.52;100537.21;1747051;80;21098;-82
2022/07/15 06:33:59;;;;;;;6.97;2.62;;;;;;;26.13;38.49;100538.84;1791639;80;21549;-81
2022/07/15 06:36:26;;;;;;;8.80;2.65;;;;;;;26.14;38.48;100539.06;1792086;80;21094;-81
2022/07/15 06:38:53;;;;;;;8.43;2.85;;;;;;;26.16;38.48;100532.53;1786842;80;21059;-81
2022/07/15 06:41:19;;;;;;;10.23;2.50;;;;;;;26.16;38.47;100531.95;1744998;80;21030;-81
2022/07/15 06:43:46;;;;;;;10.65;2.20;;;;;;;26.19;38.37;100532.61;1757252;80;21415;-80
2022/07/15 06:46:12;;;;;;;8.53;3.10;;;;;;;26.20;38.29;100526.48;1756177;80;22007;-80
2022/07/15 06:48:39;;;;;;;8.20;2.60;;;;;;;26.23;38.25;100527.14;1758400;80;21222;-81
2022/07/15 06:51:06;;;;;;;6.67;2.40;;;;;;;26.24;38.22;100532.95;1760811;80;21538;-81
2022/07/15 06:53:32;;;;;;;12.88;2.60;;;;;;;26.26;38.18;100537.01;1757082;80;21028;-81
2022/07/15 06:56:05;;;;;;;6.10;2.65;;;;;;;26.27;38.11;100533.03;1756029;81;21316;-81
2022/07/15 06:58:31;;;;;;;6.87;2.47;;;;;;;26.29;38.06;100533.48;1755532;81;21147;-81
2022/07/15 07:00:59;;;;;;;11.00;2.77;;;;;;;26.31;38.04;100528.92;1747691;80;21069;-81
2022/07/15 07:03:26;;;;;;;8.40;2.50;;;;;;;26.33;38.01;100530.78;1752144;80;21086;-81
2022/07/15 07:05:52;;;;;;;9.38;2.42;;;;;;;26.35;37.91;100529.84;1728829;81;21069;-82
2022/07/15 07:08:18;;;;;;;5.95;2.40;;;;;;;26.40;37.74;100530.12;1751984;81;21055;-82
2022/07/15 07:10:45;;;;;;;7.97;2.77;;;;;;;26.42;37.71;100534.18;1756886;80;22214;-82
2022/07/15 07:13:12;;;;;;;5.97;2.12;;;;;;;26.44;37.68;100530.42;1781297;80;21520;-82
2022/07/15 07:15:38;;;;;;;12.13;2.47;;;;;;;26.45;37.70;100529.26;1781718;80;21103;-81
2022/07/15 07:18:05;;;;;;;7.10;2.37;;;;;;;26.47;37.66;100525.53;1781229;80;21067;-82
2022/07/15 07:20:33;;;;;;;7.15;2.17;;;;;;;26.52;37.58;100534.20;1780329;80;21103;-81
2022/07/15 07:22:59;;;;;;;8.10;2.60;;;;;;;26.53;37.53;100535.22;1780482;80;21118;-82
2022/07/15 07:25:26;;;;;;;10.58;2.40;;;;;;;26.55;37.49;100532.88;1773519;80;21550;-81
2022/07/15 07:27:52;;;;;;;7.22;2.47;;;;;;;26.59;37.46;100535.17;1748767;82;21047;-81
2022/07/15 07:30:19;;;;;;;6.58;2.17;;;;;;;26.62;37.46;100535.01;1748916;82;21102;-81
2022/07/15 07:32:45;;;;;;;6.22;2.00;;;;;;;26.63;37.52;100538.03;1748274;82;21084;-82
2022/07/15 07:35:12;;;;;;;6.40;2.55;;;;;;;26.65;37.40;100531.52;1749729;81;21103;-82
2022/07/15 07:37:38;;;;;;;7.12;2.27;;;;;;;26.70;37.33;100526.43;1750290;81;20985;-82
2022/07/15 07:40:08;;;;;;;5.30;2.02;;;;;;;26.71;37.33;100528.64;1749973;80;21073;-81
2022/07/15 07:42:35;;;;;;;5.45;1.70;;;;;;;26.72;37.22;100528.86;1745904;81;21029;-82
2022/07/15 07:45:01;;;;;;;7.47;2.05;;;;;;;26.74;37.10;100525.92;1750453;80;21525;-81
2022/07/15 07:47:28;;;;;;;6.67;2.15;;;;;;;26.75;37.12;100535.10;1741045;80;21851;-81
2022/07/15 07:49:54;;;;;;;9.08;2.08;;;;;;;26.82;36.97;100526.28;1750491;81;21066;-82
2022/07/15 07:52:20;;;;;;;7.28;2.00;;;;;;;26.90;36.82;100533.47;1753413;80;21053;-81
2022/07/15 07:54:47;;;;;;;5.30;2.08;;;;;;;26.93;36.82;100527.14;1750016;81;21105;-82
2022/07/15 07:57:13;;;;;;;5.30;2.10;;;;;;;26.94;36.82;100527.38;1750216;81;21049;-81
2022/07/15 07:59:40;;;;;;;3.15;1.70;;;;;;;26.95;36.91;100534.55;1750439;81;21066;-81
2022/07/15 08:02:06;;;;;;;5.15;2.27;;;;;;;26.94;37.01;100529.58;1750048;82;21014;-80
2022/07/15 08:04:32;;;;;;;3.40;1.98;;;;;;;26.94;37.03;100528.18;1761132;80;21087;-81
2022/07/15 08:06:59;;;;;;;4.95;2.10;;;;;;;26.96;36.98;100523.02;1750402;81;21053;-81
2022/07/15 08:09:26;;;;;;;3.58;1.90;;;;;;;26.97;36.99;100517.66;1736771;82;22093;-82
2022/07/15 08:11:52;;;;;;;5.37;2.10;;;;;;;27.01;36.98;100521.34;1711779;83;21299;-80
2022/07/15 08:14:19;;;;;;;5.10;1.90;;;;;;;27.03;36.89;100523.16;1711918;83;21192;-80
2022/07/15 08:16:46;;;;;;;4.47;1.80;;;;;;;27.05;36.82;100521.41;1696609;83;21024;-81
2022/07/15 08:19:16;;;;;;;4.20;1.98;;;;;;;27.07;36.76;100523.25;1665668;84;21114;-80
2022/07/15 08:21:43;;;;;;;5.33;1.90;;;;;;;27.06;36.76;100518.25;1737356;80;21061;-81
2022/07/15 08:24:11;;;;;;;5.50;1.55;;;;;;;27.10;36.63;100512.14;1728934;81;21157;-80
2022/07/15 08:26:37;;;;;;;4.47;1.77;;;;;;;27.19;36.48;100515.52;1729406;81;21202;-81
2022/07/15 08:29:04;;;;;;;4.03;2.40;;;;;;;27.19;36.48;100515.52;1738139;80;22122;-81
2022/07/15 08:31:34;;;;;;;6.15;1.95;;;;;;;27.18;36.50;100509.71;1743391;81;21565;-79
2022/07/15 08:34:02;;;;;;;4.28;2.05;;;;;;;27.21;36.48;100513.15;1750692;80;21667;-80
2022/07/15 08:36:29;;;;;;;4.30;1.77;;;;;;;27.20;36.40;100511.53;1749534;80;21128;-81
2022/07/15 08:38:55;;;;;;;3.42;1.80;;;;;;;27.19;36.42;100507.14;1737803;80;21041;-80
2022/07/15 08:41:22;;;;;;;4.53;1.70;;;;;;;27.19;36.36;100507.73;1731839;81;21052;-82
2022/07/15 08:43:48;;;;;;;5.90;1.75;;;;;;;27.19;36.32;100502.95;1738674;80;21014;-81
2022/07/15 08:46:16;;;;;;;5.12;1.55;;;;;;;27.19;36.36;100509.94;1737903;80;21103;-80
2022/07/15 08:48:50;;;;;;;3.98;1.70;;;;;;;27.19;36.42;100504.34;1736098;81;21813;-81
2022/07/15 08:51:17;;;;;;;6.37;1.80;;;;;;;27.19;36.44;100502.14;1743912;80;21456;-80
2022/07/15 08:53:43;;;;;;;2.58;1.50;;;;;;;27.22;36.32;100495.22;1750303;80;21092;-81
2022/07/15 08:56:13;;;;;;;7.50;1.62;;;;;;;27.23;36.28;100493.24;1732251;81;21117;-81
2022/07/15 08:58:39;;;;;;;3.83;1.70;;;;;;;27.22;36.20;100493.02;1740541;81;21097;-81
2022/07/15 09:01:06;;;;;;;5.65;1.57;;;;;;;27.23;36.15;100496.84;1750325;80;21828;-80
2022/07/15 09:03:32;;;;;;;4.28;1.55;;;;;;;27.23;35.99;100489.86;1750984;80;21582;-80
2022/07/15 09:05:59;;;;;;;3.00;1.57;;;;;;;27.24;35.92;100490.06;1720479;81;21515;-80
2022/07/15 09:08:25;;;;;;;7.55;1.40;;;;;;;27.25;35.80;100488.08;1738343;81;21044;-79
2022/07/15 09:11:00;;;;;;;5.12;1.35;;;;;;;27.23;35.67;100481.48;1749950;80;21053;-82
2022/07/15 09:13:34;;;;;;;5.35;1.47;;;;;;;27.26;35.64;100477.13;1757281;80;21571;-81
2022/07/15 09:16:09;;;;;;;2.22;1.45;;;;;;;27.26;35.64;100477.13;1753646;80;21089;-81
2022/07/15 09:18:41;;;;;;;5.40;1.65;;;;;;;27.24;35.58;100474.70;1756095;80;21050;-81
2022/07/15 09:21:25;;;;;;;3.08;1.50;;;;;;;27.25;35.63;100471.31;1757819;80;21474;-81
2022/07/15 09:23:53;;;;;;;3.83;1.80;;;;;;;27.23;35.59;100475.09;1752223;80;21007;-81
2022/07/15 09:26:32;;;;;;;2.98;1.50;;;;;;;27.22;35.46;100467.30;1773096;80;21163;-81
2022/07/15 09:28:59;;;;;;;3.47;1.50;;;;;;;27.25;35.36;100464.33;1748063;80;21096;-81
2022/07/15 09:34:17;;;;;;;2.67;1.60;;;;;;;27.28;35.16;100454.42;1759831;80;21119;-82
2022/07/15 09:36:50;;;;;;;2.95;1.60;;;;;;;27.28;35.19;100462.80;1695838;83;21101;-81
2022/07/15 09:39:15;;;;;;;4.45;1.60;;;;;;;27.26;35.22;100463.97;1728333;81;21673;-82
2022/07/15 09:41:42;;;;;;;4.78;1.62;;;;;;;27.25;35.23;100455.38;1723768;81;21389;-81
2022/07/15 09:44:21;;;;;;;2.52;1.40;;;;;;;27.26;35.23;100450.59;1728957;81;21094;-81
2022/07/15 09:46:51;;;;;;;2.58;1.55;;;;;;;27.27;35.07;100449.42;1729080;81;21130;-80
2022/07/15 09:49:32;;;;;;;5.17;1.17;;;;;;;27.30;34.91;100449.25;1729149;81;21023;-81
2022/07/15 09:52:08;;;;;;;3.35;1.37;;;;;;;27.33;34.72;100441.55;1702646;81;21493;-81
2022/07/15 09:54:40;;;;;;;1.75;1.32;;;;;;;27.38;34.46;100442.61;1728736;81;21079;-81
2022/07/15 09:57:15;;;;;;;6.20;1.30;;;;;;;27.37;34.42;100450.19;1728813;81;21299;-81
2022/07/15 09:59:43;;;;;;;4.60;1.25;;;;;;;27.38;34.36;100442.61;1729399;81;21549;-81
2022/07/15 10:02:10;;;;;;;2.65;1.40;;;;;;;27.40;34.27;100440.27;1729249;81;21047;-81
2022/07/15 10:04:37;;;;;;;2.95;1.60;;;;;;;27.44;34.22;100436.95;1724264;81;21213;-81
2022/07/15 10:07:04;;;;;;;2.40;1.22;;;;;;;27.44;34.15;100434.16;1707791;81;20993;-81
2022/07/15 10:09:37;;;;;;;1.95;1.30;;;;;;;27.44;34.09;100431.36;1729548;81;21028;-81
2022/07/15 10:12:10;;;;;;;3.02;1.27;;;;;;;27.44;34.07;100435.55;1730435;81;21098;-81
2022/07/15 10:14:54;;;;;;;2.05;1.30;;;;;;;27.42;34.07;100433.70;1731566;81;21023;-80
2022/07/15 10:17:41;;;;;;;3.77;1.10;;;;;;;27.42;34.02;100425.32;1727600;81;21761;-81
2022/07/15 10:20:39;;;;;;;3.05;1.20;;;;;;;27.45;33.93;100424.01;1721978;82;21090;-80
2022/07/15 10:23:39;;;;;;;5.20;1.30;;;;;;;27.42;33.98;100433.12;1730981;81;21003;-81
2022/07/15 10:26:51;;;;;;;1.77;1.15;;;;;;;27.38;34.06;100441.22;1731509;81;21542;-81
2022/07/15 10:29:23;;;;;;;2.20;1.17;;;;;;;27.34;34.12;100435.57;1731322;82;21071;-81
2022/07/15 10:31:58;;;;;;;2.70;1.05;;;;;;;27.28;34.23;100417.53;1731454;81;21099;-81
2022/07/15 10:34:35;;;;;;;1.72;1.20;;;;;;;27.25;34.31;100422.44;1731897;81;21071;-81
2022/07/15 10:37:10;;;;;;;2.75;1.20;;;;;;;27.22;34.37;100422.61;1730096;81;21086;-81
2022/07/15 10:40:03;;;;;;;2.25;1.15;;;;;;;27.18;34.49;100421.73;1712577;82;21063;-82
2022/07/15 10:42:25;;;;;;;3.33;1.35;;;;;;;27.15;34.52;100414.11;1731227;81;21442;-81
2022/07/15 10:45:04;;;;;;;3.67;1.35;;;;;;;27.13;34.58;100407.27;1731810;81;21094;-81
2022/07/15 10:47:31;;;;;;;2.33;1.10;;;;;;;27.11;34.64;100390.90;1731709;82;21313;-81
2022/07/15 10:49:58;;;;;;;2.17;1.20;;;;;;;27.08;34.66;100384.64;1732312;81;21100;-81
2022/07/15 10:52:27;;;;;;;2.75;1.30;;;;;;;27.07;34.72;100394.80;1732231;81;21079;-81
2022/07/15 10:55:03;;;;;;;1.62;1.15;;;;;;;27.05;34.75;100385.39;1731967;81;21507;-81
2022/07/15 10:57:45;;;;;;;2.47;1.30;;;;;;;27.05;34.75;100393.77;1732026;82;21195;-81
2022/07/15 11:00:34;;;;;;;1.70;1.02;;;;;;;27.03;34.74;100390.53;1729276;81;21023;-81
2022/07/15 11:03:05;;;;;;;2.30;1.32;;;;;;;27.03;34.81;100391.14;1731514;82;21519;-81
2022/07/15 11:05:31;;;;;;;2.22;1.30;;;;;;;27.01;34.81;100394.88;1731529;82;21287;-81
2022/07/15 11:07:57;;;;;;;2.62;1.27;;;;;;;27.01;34.83;100375.34;1730099;81;21070;-81
2022/07/15 11:10:24;;;;;;;1.85;1.37;;;;;;;26.99;34.84;100377.09;1722431;81;20946;-81
2022/07/15 11:12:55;;;;;;;2.65;1.20;;;;;;;26.98;34.84;100375.50;1723907;81;21002;-81
2022/07/15 11:15:25;;;;;;;3.35;1.32;;;;;;;26.98;34.85;100372.71;1725608;81;20971;-81
2022/07/15 11:17:51;;;;;;;3.90;1.30;;;;;;;26.98;34.88;100378.30;1725436;82;21081;-80
2022/07/15 11:20:27;;;;;;;1.90;1.00;;;;;;;26.97;34.90;100372.48;1709460;82;21065;-81
2022/07/15 11:22:56;;;;;;;2.67;1.00;;;;;;;26.98;34.88;100367.13;1708218;82;21137;-81
2022/07/15 11:25:39;;;;;;;2.72;1.25;;;;;;;26.97;34.89;100368.88;1725033;82;21085;-80
2022/07/15 11:28:12;;;;;;;2.42;1.05;;;;;;;26.96;34.89;100383.42;1725318;81;21576;-81
2022/07/15 11:30:41;;;;;;;3.77;1.20;;;;;;;26.95;34.89;100379.02;1725295;81;21389;-81
2022/07/15 11:33:12;;;;;;;4.83;1.30;;;;;;;26.95;34.89;100372.03;1725570;81;21544;-81
2022/07/15 11:35:58;;;;;;;2.95;1.00;;;;;;;26.92;34.92;100364.41;1725498;82;21898;-79